sensor_id;sensor_type;location;lat;lon;timestamp;P1;durP1;ratioP1;P2;durP2;ratioP2
17441;SDS011;8838;50.144;8.176;2023-03-16T00:00:13;12.00;;;5.83;;
17441;SDS011;8838;50.144;8.176;2023-03-16T00:02:40;9.60;;;4.87;;
17441;SDS011;8838;50.144;8.176;2023-03-16T00:05:08;11.90;;;4.70;;
17441;SDS011;8838;50.144;8.176;2023-03-16T00:07:38;7.33;;;4.10;;
17441;SDS011;8838;50.144;8.176;2023-03-16T00:10:06;6.73;;;3.60;;
17441;SDS011;8838;50.144;8.176;2023-03-16T00:12:34;12.87;;;3.90;;
17441;SDS011;8838;50.144;8.176;2023-03-16T00:15:01;6.83;;;3.27;;
17441;SDS011;8838;50.144;8.176;2023-03-16T00:17:28;8.57;;;3.43;;
17441;SDS011;8838;50.144;8.176;2023-03-16T00:19:55;8.77;;;3.27;;
17441;SDS011;8838;50.144;8.176;2023-03-16T00:22:23;5.93;;;3.20;;
17441;SDS011;8838;50.144;8.176;2023-03-16T00:24:53;8.97;;;3.47;;
17441;SDS011;8838;50.144;8.176;2023-03-16T00:27:20;5.87;;;3.70;;
17441;SDS011;8838;50.144;8.176;2023-03-16T00:29:48;5.77;;;3.40;;
17441;SDS011;8838;50.144;8.176;2023-03-16T00:32:20;10.87;;;3.80;;
17441;SDS011;8838;50.144;8.176;2023-03-16T00:34:49;7.93;;;3.50;;
17441;SDS011;8838;50.144;8.176;2023-03-16T00:37:17;7.93;;;3.53;;
17441;SDS011;8838;50.144;8.176;2023-03-16T00:39:45;6.97;;;3.70;;
17441;SDS011;8838;50.144;8.176;2023-03-16T00:42:14;10.00;;;3.80;;
17441;SDS011;8838;50.144;8.176;2023-03-16T00:44:42;8.30;;;3.90;;
17441;SDS011;8838;50.144;8.176;2023-03-16T00:47:10;11.73;;;3.80;;
17441;SDS011;8838;50.144;8.176;2023-03-16T00:49:39;7.60;;;4.13;;
17441;SDS011;8838;50.144;8.176;2023-03-16T00:52:07;8.57;;;4.50;;
17441;SDS011;8838;50.144;8.176;2023-03-16T00:54:38;13.13;;;4.23;;
17441;SDS011;8838;50.144;8.176;2023-03-16T00:57:07;8.20;;;4.10;;
17441;SDS011;8838;50.144;8.176;2023-03-16T00:59:37;6.93;;;3.40;;
17441;SDS011;8838;50.144;8.176;2023-03-16T01:02:04;7.23;;;3.83;;
17441;SDS011;8838;50.144;8.176;2023-03-16T01:04:32;6.77;;;3.80;;
17441;SDS011;8838;50.144;8.176;2023-03-16T01:07:00;7.53;;;4.60;;
17441;SDS011;8838;50.144;8.176;2023-03-16T01:09:27;10.00;;;3.90;;
17441;SDS011;8838;50.144;8.176;2023-03-16T01:11:54;11.60;;;4.60;;
17441;SDS011;8838;50.144;8.176;2023-03-16T01:14:20;6.53;;;4.03;;
17441;SDS011;8838;50.144;8.176;2023-03-16T01:16:49;8.10;;;4.10;;
17441;SDS011;8838;50.144;8.176;2023-03-16T01:19:16;6.60;;;4.20;;
17441;SDS011;8838;50.144;8.176;2023-03-16T01:21:43;10.80;;;4.30;;
17441;SDS011;8838;50.144;8.176;2023-03-16T01:24:10;10.63;;;4.40;;
17441;SDS011;8838;50.144;8.176;2023-03-16T01:26:37;7.70;;;4.00;;
17441;SDS011;8838;50.144;8.176;2023-03-16T01:29:03;7.93;;;4.77;;
17441;SDS011;8838;50.144;8.176;2023-03-16T01:31:30;9.63;;;4.40;;
17441;SDS011;8838;50.144;8.176;2023-03-16T01:33:59;9.10;;;4.97;;
17441;SDS011;8838;50.144;8.176;2023-03-16T01:36:26;11.87;;;5.57;;
17441;SDS011;8838;50.144;8.176;2023-03-16T01:38:53;9.77;;;4.63;;
17441;SDS011;8838;50.144;8.176;2023-03-16T01:41:20;11.17;;;5.03;;
17441;SDS011;8838;50.144;8.176;2023-03-16T01:43:47;8.87;;;5.10;;
17441;SDS011;8838;50.144;8.176;2023-03-16T01:46:18;10.37;;;5.10;;
17441;SDS011;8838;50.144;8.176;2023-03-16T01:51:36;10.10;;;5.13;;
17441;SDS011;8838;50.144;8.176;2023-03-16T01:54:09;9.37;;;4.80;;
17441;SDS011;8838;50.144;8.176;2023-03-16T01:56:41;9.80;;;5.03;;
17441;SDS011;8838;50.144;8.176;2023-03-16T01:59:13;9.37;;;4.70;;
17441;SDS011;8838;50.144;8.176;2023-03-16T02:01:42;8.23;;;5.10;;
17441;SDS011;8838;50.144;8.176;2023-03-16T02:04:16;10.60;;;5.47;;
17441;SDS011;8838;50.144;8.176;2023-03-16T02:06:52;8.17;;;4.80;;
17441;SDS011;8838;50.144;8.176;2023-03-16T02:09:21;13.40;;;6.13;;
17441;SDS011;8838;50.144;8.176;2023-03-16T02:11:50;8.30;;;5.47;;
17441;SDS011;8838;50.144;8.176;2023-03-16T02:14:18;11.87;;;6.13;;
17441;SDS011;8838;50.144;8.176;2023-03-16T02:16:45;9.53;;;6.00;;
17441;SDS011;8838;50.144;8.176;2023-03-16T02:19:14;11.00;;;6.27;;
17441;SDS011;8838;50.144;8.176;2023-03-16T02:21:49;15.40;;;7.90;;
17441;SDS011;8838;50.144;8.176;2023-03-16T02:24:26;14.33;;;7.47;;
17441;SDS011;8838;50.144;8.176;2023-03-16T02:26:54;14.33;;;7.30;;
17441;SDS011;8838;50.144;8.176;2023-03-16T02:29:27;14.17;;;7.37;;
17441;SDS011;8838;50.144;8.176;2023-03-16T02:32:18;18.53;;;9.73;;
17441;SDS011;8838;50.144;8.176;2023-03-16T02:34:47;14.07;;;8.30;;
17441;SDS011;8838;50.144;8.176;2023-03-16T02:37:14;19.30;;;9.93;;
17441;SDS011;8838;50.144;8.176;2023-03-16T02:39:41;19.23;;;9.97;;
17441;SDS011;8838;50.144;8.176;2023-03-16T02:42:08;17.97;;;9.07;;
17441;SDS011;8838;50.144;8.176;2023-03-16T02:44:38;17.97;;;9.47;;
17441;SDS011;8838;50.144;8.176;2023-03-16T02:47:08;18.43;;;9.63;;
17441;SDS011;8838;50.144;8.176;2023-03-16T02:49:42;23.90;;;11.00;;
17441;SDS011;8838;50.144;8.176;2023-03-16T02:52:10;17.97;;;11.10;;
17441;SDS011;8838;50.144;8.176;2023-03-16T02:54:38;24.30;;;12.87;;
17441;SDS011;8838;50.144;8.176;2023-03-16T02:57:05;21.23;;;12.20;;
17441;SDS011;8838;50.144;8.176;2023-03-16T02:59:32;21.50;;;13.13;;
17441;SDS011;8838;50.144;8.176;2023-03-16T03:01:58;23.53;;;13.67;;
17441;SDS011;8838;50.144;8.176;2023-03-16T03:04:25;24.40;;;14.57;;
17441;SDS011;8838;50.144;8.176;2023-03-16T03:06:53;26.23;;;15.07;;
17441;SDS011;8838;50.144;8.176;2023-03-16T03:09:25;27.77;;;16.17;;
17441;SDS011;8838;50.144;8.176;2023-03-16T03:11:52;24.00;;;14.70;;
17441;SDS011;8838;50.144;8.176;2023-03-16T03:14:19;28.53;;;16.60;;
17441;SDS011;8838;50.144;8.176;2023-03-16T03:16:46;27.53;;;16.43;;
17441;SDS011;8838;50.144;8.176;2023-03-16T03:19:13;26.20;;;15.80;;
17441;SDS011;8838;50.144;8.176;2023-03-16T03:21:40;28.80;;;16.27;;
17441;SDS011;8838;50.144;8.176;2023-03-16T03:24:08;30.43;;;17.23;;
17441;SDS011;8838;50.144;8.176;2023-03-16T03:26:35;30.27;;;16.83;;
17441;SDS011;8838;50.144;8.176;2023-03-16T03:29:02;24.33;;;15.40;;
17441;SDS011;8838;50.144;8.176;2023-03-16T03:31:29;26.60;;;14.87;;
17441;SDS011;8838;50.144;8.176;2023-03-16T03:33:56;22.53;;;14.37;;
17441;SDS011;8838;50.144;8.176;2023-03-16T03:36:23;26.30;;;14.80;;
17441;SDS011;8838;50.144;8.176;2023-03-16T03:38:50;28.50;;;15.30;;
17441;SDS011;8838;50.144;8.176;2023-03-16T03:41:20;24.83;;;15.27;;
17441;SDS011;8838;50.144;8.176;2023-03-16T03:43:47;34.57;;;16.57;;
17441;SDS011;8838;50.144;8.176;2023-03-16T03:46:14;26.60;;;16.20;;
17441;SDS011;8838;50.144;8.176;2023-03-16T03:48:41;28.20;;;16.43;;
17441;SDS011;8838;50.144;8.176;2023-03-16T03:51:07;26.87;;;15.97;;
17441;SDS011;8838;50.144;8.176;2023-03-16T03:53:34;28.03;;;16.50;;
17441;SDS011;8838;50.144;8.176;2023-03-16T03:56:01;27.13;;;16.40;;
17441;SDS011;8838;50.144;8.176;2023-03-16T03:58:35;27.90;;;15.43;;
17441;SDS011;8838;50.144;8.176;2023-03-16T04:01:02;28.87;;;16.13;;
17441;SDS011;8838;50.144;8.176;2023-03-16T04:03:28;28.30;;;16.30;;
17441;SDS011;8838;50.144;8.176;2023-03-16T04:05:55;28.43;;;16.27;;
17441;SDS011;8838;50.144;8.176;2023-03-16T04:08:22;30.23;;;16.70;;
17441;SDS011;8838;50.144;8.176;2023-03-16T04:10:49;26.60;;;15.90;;
17441;SDS011;8838;50.144;8.176;2023-03-16T04:13:16;27.73;;;16.40;;
17441;SDS011;8838;50.144;8.176;2023-03-16T04:15:44;27.77;;;16.43;;
17441;SDS011;8838;50.144;8.176;2023-03-16T04:18:12;26.03;;;15.90;;
17441;SDS011;8838;50.144;8.176;2023-03-16T04:20:39;26.57;;;16.03;;
17441;SDS011;8838;50.144;8.176;2023-03-16T04:23:06;26.37;;;15.27;;
17441;SDS011;8838;50.144;8.176;2023-03-16T04:25:34;31.03;;;16.73;;
17441;SDS011;8838;50.144;8.176;2023-03-16T04:28:02;33.23;;;18.10;;
17441;SDS011;8838;50.144;8.176;2023-03-16T04:30:29;30.67;;;17.97;;
17441;SDS011;8838;50.144;8.176;2023-03-16T04:32:59;32.40;;;18.10;;
17441;SDS011;8838;50.144;8.176;2023-03-16T04:35:25;31.43;;;18.20;;
17441;SDS011;8838;50.144;8.176;2023-03-16T04:37:52;37.07;;;18.80;;
17441;SDS011;8838;50.144;8.176;2023-03-16T04:40:19;31.27;;;18.23;;
17441;SDS011;8838;50.144;8.176;2023-03-16T04:42:46;35.77;;;18.87;;
17441;SDS011;8838;50.144;8.176;2023-03-16T04:45:13;32.60;;;19.23;;
17441;SDS011;8838;50.144;8.176;2023-03-16T04:47:42;32.37;;;17.80;;
17441;SDS011;8838;50.144;8.176;2023-03-16T04:50:11;33.33;;;18.83;;
17441;SDS011;8838;50.144;8.176;2023-03-16T04:52:38;30.57;;;17.77;;
17441;SDS011;8838;50.144;8.176;2023-03-16T04:55:05;36.27;;;20.47;;
17441;SDS011;8838;50.144;8.176;2023-03-16T04:57:32;31.00;;;18.50;;
17441;SDS011;8838;50.144;8.176;2023-03-16T05:00:02;34.30;;;18.93;;
17441;SDS011;8838;50.144;8.176;2023-03-16T05:02:35;34.33;;;19.00;;
17441;SDS011;8838;50.144;8.176;2023-03-16T05:05:02;32.10;;;16.90;;
17441;SDS011;8838;50.144;8.176;2023-03-16T05:07:32;27.87;;;14.77;;
17441;SDS011;8838;50.144;8.176;2023-03-16T05:09:59;27.53;;;15.27;;
17441;SDS011;8838;50.144;8.176;2023-03-16T05:12:26;27.67;;;15.53;;
17441;SDS011;8838;50.144;8.176;2023-03-16T05:14:53;26.03;;;15.53;;
17441;SDS011;8838;50.144;8.176;2023-03-16T05:17:20;27.10;;;15.50;;
17441;SDS011;8838;50.144;8.176;2023-03-16T05:19:47;24.73;;;14.27;;
17441;SDS011;8838;50.144;8.176;2023-03-16T05:22:14;25.90;;;14.63;;
17441;SDS011;8838;50.144;8.176;2023-03-16T05:24:42;25.47;;;14.33;;
17441;SDS011;8838;50.144;8.176;2023-03-16T05:27:09;24.13;;;14.40;;
17441;SDS011;8838;50.144;8.176;2023-03-16T05:29:35;20.20;;;11.73;;
17441;SDS011;8838;50.144;8.176;2023-03-16T05:32:04;17.00;;;10.63;;
17441;SDS011;8838;50.144;8.176;2023-03-16T05:34:31;18.17;;;10.53;;
17441;SDS011;8838;50.144;8.176;2023-03-16T05:36:58;18.37;;;10.67;;
17441;SDS011;8838;50.144;8.176;2023-03-16T05:39:25;15.40;;;8.73;;
17441;SDS011;8838;50.144;8.176;2023-03-16T05:41:54;18.40;;;8.57;;
17441;SDS011;8838;50.144;8.176;2023-03-16T05:44:20;13.47;;;8.00;;
17441;SDS011;8838;50.144;8.176;2023-03-16T05:46:48;14.10;;;7.77;;
17441;SDS011;8838;50.144;8.176;2023-03-16T05:49:17;13.83;;;7.40;;
17441;SDS011;8838;50.144;8.176;2023-03-16T05:51:44;12.50;;;6.80;;
17441;SDS011;8838;50.144;8.176;2023-03-16T05:54:11;12.60;;;6.33;;
17441;SDS011;8838;50.144;8.176;2023-03-16T05:56:38;13.20;;;5.93;;
17441;SDS011;8838;50.144;8.176;2023-03-16T05:59:06;8.97;;;5.43;;
17441;SDS011;8838;50.144;8.176;2023-03-16T06:01:33;10.33;;;5.40;;
17441;SDS011;8838;50.144;8.176;2023-03-16T06:04:00;9.30;;;5.10;;
17441;SDS011;8838;50.144;8.176;2023-03-16T06:06:29;8.23;;;5.00;;
17441;SDS011;8838;50.144;8.176;2023-03-16T06:08:56;9.50;;;4.90;;
17441;SDS011;8838;50.144;8.176;2023-03-16T06:11:23;9.27;;;5.20;;
17441;SDS011;8838;50.144;8.176;2023-03-16T06:13:49;8.90;;;5.07;;
17441;SDS011;8838;50.144;8.176;2023-03-16T06:16:18;10.47;;;4.90;;
17441;SDS011;8838;50.144;8.176;2023-03-16T06:18:47;8.07;;;4.60;;
17441;SDS011;8838;50.144;8.176;2023-03-16T06:21:15;8.03;;;4.83;;
17441;SDS011;8838;50.144;8.176;2023-03-16T06:23:42;11.57;;;5.30;;
17441;SDS011;8838;50.144;8.176;2023-03-16T06:26:09;12.63;;;5.23;;
17441;SDS011;8838;50.144;8.176;2023-03-16T06:28:36;7.73;;;4.70;;
17441;SDS011;8838;50.144;8.176;2023-03-16T06:31:03;9.23;;;4.43;;
17441;SDS011;8838;50.144;8.176;2023-03-16T06:33:32;7.67;;;4.73;;
17441;SDS011;8838;50.144;8.176;2023-03-16T06:35:59;8.73;;;4.90;;
17441;SDS011;8838;50.144;8.176;2023-03-16T06:38:25;10.47;;;4.97;;
17441;SDS011;8838;50.144;8.176;2023-03-16T06:40:53;9.00;;;4.73;;
17441;SDS011;8838;50.144;8.176;2023-03-16T06:43:20;8.67;;;4.47;;
17441;SDS011;8838;50.144;8.176;2023-03-16T06:45:47;7.80;;;4.53;;
17441;SDS011;8838;50.144;8.176;2023-03-16T06:48:14;7.67;;;4.53;;
17441;SDS011;8838;50.144;8.176;2023-03-16T06:50:43;6.83;;;4.40;;
17441;SDS011;8838;50.144;8.176;2023-03-16T06:53:10;7.97;;;4.80;;
17441;SDS011;8838;50.144;8.176;2023-03-16T06:55:37;8.50;;;4.30;;
17441;SDS011;8838;50.144;8.176;2023-03-16T06:58:04;10.40;;;4.70;;
17441;SDS011;8838;50.144;8.176;2023-03-16T07:00:31;8.33;;;4.63;;
17441;SDS011;8838;50.144;8.176;2023-03-16T07:02:58;7.03;;;4.20;;
17441;SDS011;8838;50.144;8.176;2023-03-16T07:05:25;7.40;;;4.40;;
17441;SDS011;8838;50.144;8.176;2023-03-16T07:07:54;8.60;;;4.37;;
17441;SDS011;8838;50.144;8.176;2023-03-16T07:10:21;6.47;;;4.50;;
17441;SDS011;8838;50.144;8.176;2023-03-16T07:12:49;7.67;;;4.60;;
17441;SDS011;8838;50.144;8.176;2023-03-16T07:15:16;8.20;;;4.30;;
17441;SDS011;8838;50.144;8.176;2023-03-16T07:17:43;6.17;;;4.00;;
17441;SDS011;8838;50.144;8.176;2023-03-16T07:20:10;7.03;;;4.23;;
17441;SDS011;8838;50.144;8.176;2023-03-16T07:22:37;6.10;;;4.30;;
17441;SDS011;8838;50.144;8.176;2023-03-16T07:25:07;9.23;;;4.07;;
17441;SDS011;8838;50.144;8.176;2023-03-16T07:27:35;9.13;;;4.63;;
17441;SDS011;8838;50.144;8.176;2023-03-16T07:30:03;8.60;;;3.87;;
17441;SDS011;8838;50.144;8.176;2023-03-16T07:32:31;18.73;;;10.17;;
17441;SDS011;8838;50.144;8.176;2023-03-16T07:34:58;6.73;;;4.27;;
17441;SDS011;8838;50.144;8.176;2023-03-16T07:37:26;7.00;;;4.30;;
17441;SDS011;8838;50.144;8.176;2023-03-16T07:39:53;5.37;;;3.67;;
17441;SDS011;8838;50.144;8.176;2023-03-16T07:42:21;6.43;;;3.70;;
17441;SDS011;8838;50.144;8.176;2023-03-16T07:44:48;5.17;;;3.57;;
17441;SDS011;8838;50.144;8.176;2023-03-16T07:47:16;5.27;;;3.53;;
17441;SDS011;8838;50.144;8.176;2023-03-16T07:49:43;4.53;;;3.37;;
17441;SDS011;8838;50.144;8.176;2023-03-16T07:52:09;5.07;;;3.60;;
17441;SDS011;8838;50.144;8.176;2023-03-16T07:54:37;4.13;;;2.93;;
17441;SDS011;8838;50.144;8.176;2023-03-16T07:57:05;6.70;;;3.40;;
17441;SDS011;8838;50.144;8.176;2023-03-16T07:59:33;4.20;;;2.80;;
17441;SDS011;8838;50.144;8.176;2023-03-16T08:02:00;5.17;;;3.17;;
17441;SDS011;8838;50.144;8.176;2023-03-16T08:04:29;4.53;;;3.13;;
17441;SDS011;8838;50.144;8.176;2023-03-16T08:06:56;5.03;;;2.97;;
17441;SDS011;8838;50.144;8.176;2023-03-16T08:09:24;5.30;;;3.27;;
17441;SDS011;8838;50.144;8.176;2023-03-16T08:11:51;5.93;;;3.00;;
17441;SDS011;8838;50.144;8.176;2023-03-16T08:14:21;4.67;;;3.33;;
17441;SDS011;8838;50.144;8.176;2023-03-16T08:16:49;5.90;;;2.93;;
17441;SDS011;8838;50.144;8.176;2023-03-16T08:19:16;4.20;;;3.10;;
17441;SDS011;8838;50.144;8.176;2023-03-16T08:21:44;5.40;;;3.43;;
17441;SDS011;8838;50.144;8.176;2023-03-16T08:24:11;4.03;;;3.20;;
17441;SDS011;8838;50.144;8.176;2023-03-16T08:26:38;4.63;;;3.30;;
17441;SDS011;8838;50.144;8.176;2023-03-16T08:29:04;5.00;;;3.20;;
17441;SDS011;8838;50.144;8.176;2023-03-16T08:31:31;7.40;;;3.20;;
17441;SDS011;8838;50.144;8.176;2023-03-16T08:34:00;4.37;;;3.30;;
17441;SDS011;8838;50.144;8.176;2023-03-16T08:36:27;6.57;;;3.53;;
17441;SDS011;8838;50.144;8.176;2023-03-16T08:38:55;4.20;;;3.20;;
17441;SDS011;8838;50.144;8.176;2023-03-16T08:41:22;4.60;;;3.47;;
17441;SDS011;8838;50.144;8.176;2023-03-16T08:43:49;5.20;;;3.30;;
17441;SDS011;8838;50.144;8.176;2023-03-16T08:46:16;4.53;;;3.20;;
17441;SDS011;8838;50.144;8.176;2023-03-16T08:48:43;5.83;;;3.73;;
17441;SDS011;8838;50.144;8.176;2023-03-16T08:51:11;7.13;;;4.00;;
17441;SDS011;8838;50.144;8.176;2023-03-16T08:53:38;22.67;;;13.80;;
17441;SDS011;8838;50.144;8.176;2023-03-16T08:56:06;5.87;;;3.90;;
17441;SDS011;8838;50.144;8.176;2023-03-16T08:58:34;4.97;;;3.87;;
17441;SDS011;8838;50.144;8.176;2023-03-16T09:01:03;5.30;;;3.87;;
17441;SDS011;8838;50.144;8.176;2023-03-16T09:03:31;6.63;;;4.50;;
17441;SDS011;8838;50.144;8.176;2023-03-16T09:06:02;6.80;;;4.73;;
17441;SDS011;8838;50.144;8.176;2023-03-16T09:08:32;5.87;;;4.50;;
17441;SDS011;8838;50.144;8.176;2023-03-16T09:10:59;8.00;;;4.43;;
17441;SDS011;8838;50.144;8.176;2023-03-16T09:13:28;6.77;;;4.53;;
17441;SDS011;8838;50.144;8.176;2023-03-16T09:15:55;7.13;;;4.80;;
17441;SDS011;8838;50.144;8.176;2023-03-16T09:18:23;8.53;;;5.00;;
17441;SDS011;8838;50.144;8.176;2023-03-16T09:20:51;7.13;;;4.83;;
17441;SDS011;8838;50.144;8.176;2023-03-16T09:23:18;7.60;;;4.57;;
17441;SDS011;8838;50.144;8.176;2023-03-16T09:25:46;7.27;;;5.00;;
17441;SDS011;8838;50.144;8.176;2023-03-16T09:28:13;6.97;;;5.07;;
17441;SDS011;8838;50.144;8.176;2023-03-16T09:30:41;8.97;;;5.43;;
17441;SDS011;8838;50.144;8.176;2023-03-16T09:33:08;7.20;;;4.97;;
17441;SDS011;8838;50.144;8.176;2023-03-16T09:35:35;6.77;;;4.70;;
17441;SDS011;8838;50.144;8.176;2023-03-16T09:38:02;6.47;;;4.77;;
17441;SDS011;8838;50.144;8.176;2023-03-16T09:40:29;7.60;;;5.17;;
17441;SDS011;8838;50.144;8.176;2023-03-16T09:43:02;7.50;;;5.17;;
17441;SDS011;8838;50.144;8.176;2023-03-16T09:45:41;8.53;;;4.73;;
17441;SDS011;8838;50.144;8.176;2023-03-16T09:48:17;7.30;;;4.33;;
17441;SDS011;8838;50.144;8.176;2023-03-16T09:50:46;7.47;;;5.10;;
17441;SDS011;8838;50.144;8.176;2023-03-16T09:53:16;7.77;;;4.87;;
17441;SDS011;8838;50.144;8.176;2023-03-16T09:55:50;6.40;;;4.35;;
17441;SDS011;8838;50.144;8.176;2023-03-16T09:58:21;6.53;;;4.88;;
17441;SDS011;8838;50.144;8.176;2023-03-16T10:00:51;6.43;;;4.90;;
17441;SDS011;8838;50.144;8.176;2023-03-16T10:03:29;6.63;;;4.82;;
17441;SDS011;8838;50.144;8.176;2023-03-16T10:06:08;6.68;;;5.00;;
17441;SDS011;8838;50.144;8.176;2023-03-16T10:08:38;7.20;;;4.70;;
17441;SDS011;8838;50.144;8.176;2023-03-16T10:11:20;7.22;;;5.07;;
17441;SDS011;8838;50.144;8.176;2023-03-16T10:13:53;8.25;;;5.50;;
17441;SDS011;8838;50.144;8.176;2023-03-16T10:16:27;8.15;;;5.03;;
17441;SDS011;8838;50.144;8.176;2023-03-16T10:19:02;7.47;;;5.25;;
17441;SDS011;8838;50.144;8.176;2023-03-16T10:21:37;6.50;;;5.15;;
17441;SDS011;8838;50.144;8.176;2023-03-16T10:24:08;24.90;;;15.07;;
17441;SDS011;8838;50.144;8.176;2023-03-16T10:26:41;9.75;;;6.38;;
17441;SDS011;8838;50.144;8.176;2023-03-16T10:29:16;8.00;;;5.47;;
17441;SDS011;8838;50.144;8.176;2023-03-16T10:31:43;7.57;;;5.63;;
17441;SDS011;8838;50.144;8.176;2023-03-16T10:34:12;9.13;;;5.93;;
17441;SDS011;8838;50.144;8.176;2023-03-16T10:36:40;11.93;;;5.53;;
17441;SDS011;8838;50.144;8.176;2023-03-16T10:39:10;5.25;;;4.32;;
17441;SDS011;8838;50.144;8.176;2023-03-16T10:41:38;7.60;;;5.97;;
17441;SDS011;8838;50.144;8.176;2023-03-16T10:44:11;8.38;;;5.20;;
17441;SDS011;8838;50.144;8.176;2023-03-16T10:46:41;9.27;;;5.43;;
17441;SDS011;8838;50.144;8.176;2023-03-16T10:49:19;7.25;;;5.40;;
17441;SDS011;8838;50.144;8.176;2023-03-16T10:51:49;7.85;;;5.40;;
17441;SDS011;8838;50.144;8.176;2023-03-16T10:54:18;6.80;;;5.45;;
17441;SDS011;8838;50.144;8.176;2023-03-16T10:56:53;6.15;;;5.10;;
17441;SDS011;8838;50.144;8.176;2023-03-16T10:59:25;8.27;;;5.47;;
17441;SDS011;8838;50.144;8.176;2023-03-16T11:01:57;7.45;;;5.70;;
17441;SDS011;8838;50.144;8.176;2023-03-16T11:04:29;7.60;;;5.65;;
17441;SDS011;8838;50.144;8.176;2023-03-16T11:06:57;6.93;;;5.13;;
17441;SDS011;8838;50.144;8.176;2023-03-16T11:09:25;8.25;;;5.13;;
17441;SDS011;8838;50.144;8.176;2023-03-16T11:11:57;7.85;;;5.63;;
17441;SDS011;8838;50.144;8.176;2023-03-16T11:14:25;9.77;;;5.63;;
17441;SDS011;8838;50.144;8.176;2023-03-16T11:16:59;7.53;;;5.40;;
17441;SDS011;8838;50.144;8.176;2023-03-16T11:19:34;8.43;;;5.95;;
17441;SDS011;8838;50.144;8.176;2023-03-16T11:22:04;9.52;;;5.88;;
17441;SDS011;8838;50.144;8.176;2023-03-16T11:24:39;9.98;;;5.70;;
17441;SDS011;8838;50.144;8.176;2023-03-16T11:27:16;10.13;;;5.88;;
17441;SDS011;8838;50.144;8.176;2023-03-16T11:29:50;10.90;;;6.10;;
17441;SDS011;8838;50.144;8.176;2023-03-16T11:32:28;8.90;;;6.30;;
17441;SDS011;8838;50.144;8.176;2023-03-16T11:34:58;7.40;;;5.33;;
17441;SDS011;8838;50.144;8.176;2023-03-16T11:37:30;7.83;;;5.73;;
17441;SDS011;8838;50.144;8.176;2023-03-16T11:40:15;10.87;;;5.60;;
17441;SDS011;8838;50.144;8.176;2023-03-16T11:42:55;10.27;;;5.45;;
17441;SDS011;8838;50.144;8.176;2023-03-16T11:45:32;7.80;;;5.13;;
17441;SDS011;8838;50.144;8.176;2023-03-16T11:51:04;7.47;;;5.40;;
17441;SDS011;8838;50.144;8.176;2023-03-16T11:53:39;8.75;;;5.65;;
17441;SDS011;8838;50.144;8.176;2023-03-16T11:56:24;8.95;;;4.75;;
17441;SDS011;8838;50.144;8.176;2023-03-16T11:59:01;9.33;;;5.70;;
17441;SDS011;8838;50.144;8.176;2023-03-16T12:01:47;6.80;;;5.20;;
17441;SDS011;8838;50.144;8.176;2023-03-16T12:04:36;8.87;;;4.93;;
17441;SDS011;8838;50.144;8.176;2023-03-16T12:07:14;7.75;;;4.22;;
17441;SDS011;8838;50.144;8.176;2023-03-16T12:12:39;5.70;;;4.30;;
17441;SDS011;8838;50.144;8.176;2023-03-16T12:15:16;7.20;;;4.50;;
17441;SDS011;8838;50.144;8.176;2023-03-16T12:17:51;7.03;;;4.50;;
17441;SDS011;8838;50.144;8.176;2023-03-16T12:20:22;7.47;;;4.17;;
17441;SDS011;8838;50.144;8.176;2023-03-16T12:22:52;6.87;;;4.00;;
17441;SDS011;8838;50.144;8.176;2023-03-16T12:25:25;9.45;;;4.18;;
17441;SDS011;8838;50.144;8.176;2023-03-16T12:27:57;6.68;;;4.50;;
17441;SDS011;8838;50.144;8.176;2023-03-16T12:30:31;10.13;;;5.60;;
17441;SDS011;8838;50.144;8.176;2023-03-16T12:33:05;8.00;;;5.32;;
17441;SDS011;8838;50.144;8.176;2023-03-16T12:35:41;7.67;;;5.07;;
17441;SDS011;8838;50.144;8.176;2023-03-16T12:38:17;8.02;;;4.40;;
17441;SDS011;8838;50.144;8.176;2023-03-16T12:41:10;8.68;;;4.15;;
17441;SDS011;8838;50.144;8.176;2023-03-16T12:43:46;6.30;;;4.20;;
17441;SDS011;8838;50.144;8.176;2023-03-16T12:46:27;6.50;;;4.30;;
17441;SDS011;8838;50.144;8.176;2023-03-16T12:49:01;8.40;;;4.68;;
17441;SDS011;8838;50.144;8.176;2023-03-16T12:51:33;6.55;;;4.30;;
17441;SDS011;8838;50.144;8.176;2023-03-16T12:54:01;7.72;;;4.38;;
17441;SDS011;8838;50.144;8.176;2023-03-16T12:56:30;5.88;;;4.05;;
17441;SDS011;8838;50.144;8.176;2023-03-16T12:58:59;35.10;;;20.98;;
17441;SDS011;8838;50.144;8.176;2023-03-16T13:01:28;6.32;;;3.95;;
17441;SDS011;8838;50.144;8.176;2023-03-16T13:04:05;5.85;;;3.17;;
17441;SDS011;8838;50.144;8.176;2023-03-16T13:06:41;5.65;;;3.40;;
17441;SDS011;8838;50.144;8.176;2023-03-16T13:09:09;7.18;;;3.70;;
17441;SDS011;8838;50.144;8.176;2023-03-16T13:11:39;5.68;;;3.75;;
17441;SDS011;8838;50.144;8.176;2023-03-16T13:14:12;9.32;;;3.67;;
17441;SDS011;8838;50.144;8.176;2023-03-16T13:16:42;6.75;;;3.13;;
17441;SDS011;8838;50.144;8.176;2023-03-16T13:19:16;5.72;;;3.28;;
17441;SDS011;8838;50.144;8.176;2023-03-16T13:22:00;5.03;;;3.17;;
17441;SDS011;8838;50.144;8.176;2023-03-16T13:24:35;8.25;;;3.78;;
17441;SDS011;8838;50.144;8.176;2023-03-16T13:27:19;5.43;;;3.33;;
17441;SDS011;8838;50.144;8.176;2023-03-16T13:29:52;6.53;;;3.65;;
17441;SDS011;8838;50.144;8.176;2023-03-16T13:32:21;6.85;;;3.33;;
17441;SDS011;8838;50.144;8.176;2023-03-16T13:34:50;6.78;;;3.60;;
17441;SDS011;8838;50.144;8.176;2023-03-16T13:37:20;6.60;;;3.67;;
17441;SDS011;8838;50.144;8.176;2023-03-16T13:39:58;4.38;;;3.67;;
17441;SDS011;8838;50.144;8.176;2023-03-16T13:42:27;5.57;;;3.90;;
17441;SDS011;8838;50.144;8.176;2023-03-16T13:44:55;5.05;;;3.58;;
17441;SDS011;8838;50.144;8.176;2023-03-16T13:47:24;6.50;;;4.07;;
17441;SDS011;8838;50.144;8.176;2023-03-16T13:49:54;4.97;;;3.60;;
17441;SDS011;8838;50.144;8.176;2023-03-16T13:52:27;6.22;;;3.85;;
17441;SDS011;8838;50.144;8.176;2023-03-16T13:54:55;6.10;;;3.58;;
17441;SDS011;8838;50.144;8.176;2023-03-16T13:57:24;5.30;;;3.43;;
17441;SDS011;8838;50.144;8.176;2023-03-16T13:59:59;5.47;;;3.40;;
17441;SDS011;8838;50.144;8.176;2023-03-16T14:02:29;6.40;;;3.43;;
17441;SDS011;8838;50.144;8.176;2023-03-16T14:05:08;6.43;;;3.27;;
17441;SDS011;8838;50.144;8.176;2023-03-16T14:07:38;5.77;;;3.30;;
17441;SDS011;8838;50.144;8.176;2023-03-16T14:10:05;6.67;;;3.13;;
17441;SDS011;8838;50.144;8.176;2023-03-16T14:12:34;5.53;;;3.37;;
17441;SDS011;8838;50.144;8.176;2023-03-16T14:15:03;5.57;;;3.40;;
17441;SDS011;8838;50.144;8.176;2023-03-16T14:17:31;9.88;;;3.22;;
17441;SDS011;8838;50.144;8.176;2023-03-16T14:19:58;5.40;;;2.97;;
17441;SDS011;8838;50.144;8.176;2023-03-16T14:22:27;3.53;;;2.90;;
17441;SDS011;8838;50.144;8.176;2023-03-16T14:25:00;3.20;;;2.60;;
17441;SDS011;8838;50.144;8.176;2023-03-16T14:27:30;4.67;;;2.97;;
17441;SDS011;8838;50.144;8.176;2023-03-16T14:30:13;5.77;;;2.93;;
17441;SDS011;8838;50.144;8.176;2023-03-16T14:32:52;6.10;;;2.47;;
17441;SDS011;8838;50.144;8.176;2023-03-16T14:35:24;4.47;;;2.47;;
17441;SDS011;8838;50.144;8.176;2023-03-16T14:37:52;2.80;;;2.30;;
17441;SDS011;8838;50.144;8.176;2023-03-16T14:40:23;3.17;;;2.30;;
17441;SDS011;8838;50.144;8.176;2023-03-16T14:42:53;4.07;;;2.60;;
17441;SDS011;8838;50.144;8.176;2023-03-16T14:45:22;5.43;;;2.20;;
17441;SDS011;8838;50.144;8.176;2023-03-16T14:47:59;4.70;;;2.67;;
17441;SDS011;8838;50.144;8.176;2023-03-16T14:50:28;4.80;;;2.30;;
17441;SDS011;8838;50.144;8.176;2023-03-16T14:52:57;3.05;;;2.08;;
17441;SDS011;8838;50.144;8.176;2023-03-16T14:55:29;3.63;;;2.25;;
17441;SDS011;8838;50.144;8.176;2023-03-16T14:57:56;8.27;;;2.00;;
17441;SDS011;8838;50.144;8.176;2023-03-16T15:00:23;4.45;;;2.08;;
17441;SDS011;8838;50.144;8.176;2023-03-16T15:02:55;2.67;;;1.90;;
17441;SDS011;8838;50.144;8.176;2023-03-16T15:05:29;3.53;;;2.00;;
17441;SDS011;8838;50.144;8.176;2023-03-16T15:07:59;4.95;;;2.20;;
17441;SDS011;8838;50.144;8.176;2023-03-16T15:10:29;3.90;;;2.40;;
17441;SDS011;8838;50.144;8.176;2023-03-16T15:12:59;3.30;;;2.20;;
17441;SDS011;8838;50.144;8.176;2023-03-16T15:15:41;3.22;;;2.30;;